sensor_id;sensor_type;location;lat;lon;timestamp;temperature;humidity
17066;DHT22;23120;52.336;21.182;2023-07-31T00:00:20;18.50;99.90
17066;DHT22;23120;52.336;21.182;2023-07-31T00:02:47;18.50;99.90
17066;DHT22;23120;52.336;21.182;2023-07-31T00:05:15;18.50;99.90
17066;DHT22;23120;52.336;21.182;2023-07-31T00:07:42;18.40;99.90
17066;DHT22;23120;52.336;21.182;2023-07-31T00:10:09;18.50;99.90
17066;DHT22;23120;52.336;21.182;2023-07-31T00:12:38;18.40;99.90
17066;DHT22;23120;52.336;21.182;2023-07-31T00:15:06;18.40;99.90
17066;DHT22;23120;52.336;21.182;2023-07-31T00:17:34;18.40;99.90
17066;DHT22;23120;52.336;21.182;2023-07-31T00:20:01;18.40;99.90
17066;DHT22;23120;52.336;21.182;2023-07-31T00:22:28;18.40;99.90
17066;DHT22;23120;52.336;21.182;2023-07-31T00:24:55;18.40;99.90
17066;DHT22;23120;52.336;21.182;2023-07-31T00:27:22;18.40;99.90
17066;DHT22;23120;52.336;21.182;2023-07-31T00:29:50;18.30;99.90
17066;DHT22;23120;52.336;21.182;2023-07-31T00:32:16;18.30;99.90
17066;DHT22;23120;52.336;21.182;2023-07-31T00:34:44;18.20;99.90
17066;DHT22;23120;52.336;21.182;2023-07-31T00:37:11;18.20;99.90
17066;DHT22;23120;52.336;21.182;2023-07-31T00:39:38;18.20;99.90
17066;DHT22;23120;52.336;21.182;2023-07-31T00:42:05;18.20;99.90
17066;DHT22;23120;52.336;21.182;2023-07-31T00:44:33;18.20;99.90
17066;DHT22;23120;52.336;21.182;2023-07-31T00:47:00;18.20;99.90
17066;DHT22;23120;52.336;21.182;2023-07-31T00:49:27;18.20;99.90
17066;DHT22;23120;52.336;21.182;2023-07-31T00:51:56;18.20;99.90
17066;DHT22;23120;52.336;21.182;2023-07-31T00:54:24;18.10;99.90
17066;DHT22;23120;52.336;21.182;2023-07-31T00:56:53;18.10;99.90
17066;DHT22;23120;52.336;21.182;2023-07-31T00:59:21;18.10;99.90
17066;DHT22;23120;52.336;21.182;2023-07-31T01:01:48;18.10;99.90
17066;DHT22;23120;52.336;21.182;2023-07-31T01:04:16;18.10;99.90
17066;DHT22;23120;52.336;21.182;2023-07-31T01:06:48;18.10;99.90
17066;DHT22;23120;52.336;21.182;2023-07-31T01:09:22;18.00;99.90
17066;DHT22;23120;52.336;21.182;2023-07-31T01:11:56;18.00;99.90
17066;DHT22;23120;52.336;21.182;2023-07-31T01:14:23;18.00;99.90
17066;DHT22;23120;52.336;21.182;2023-07-31T01:16:49;18.00;99.90
17066;DHT22;23120;52.336;21.182;2023-07-31T01:19:21;17.90;99.90
17066;DHT22;23120;52.336;21.182;2023-07-31T01:22:09;17.90;99.90
17066;DHT22;23120;52.336;21.182;2023-07-31T01:24:54;17.90;99.90
17066;DHT22;23120;52.336;21.182;2023-07-31T01:27:25;17.80;99.90
17066;DHT22;23120;52.336;21.182;2023-07-31T01:30:00;17.90;99.90
17066;DHT22;23120;52.336;21.182;2023-07-31T01:32:30;17.80;99.90
17066;DHT22;23120;52.336;21.182;2023-07-31T01:34:58;17.90;99.90
17066;DHT22;23120;52.336;21.182;2023-07-31T01:37:28;17.90;99.90
17066;DHT22;23120;52.336;21.182;2023-07-31T01:39:55;17.80;99.90
17066;DHT22;23120;52.336;21.182;2023-07-31T01:42:23;17.80;99.90
17066;DHT22;23120;52.336;21.182;2023-07-31T01:44:50;17.80;99.90
17066;DHT22;23120;52.336;21.182;2023-07-31T01:47:17;17.70;99.90
17066;DHT22;23120;52.336;21.182;2023-07-31T01:49:44;17.80;99.90
17066;DHT22;23120;52.336;21.182;2023-07-31T01:52:10;17.70;99.90
17066;DHT22;23120;52.336;21.182;2023-07-31T01:54:37;17.70;99.90
17066;DHT22;23120;52.336;21.182;2023-07-31T01:57:04;17.70;99.90
17066;DHT22;23120;52.336;21.182;2023-07-31T01:59:33;17.70;99.90
17066;DHT22;23120;52.336;21.182;2023-07-31T02:02:00;17.70;99.90
17066;DHT22;23120;52.336;21.182;2023-07-31T02:04:27;17.60;99.90
17066;DHT22;23120;52.336;21.182;2023-07-31T02:06:54;17.60;99.90
17066;DHT22;23120;52.336;21.182;2023-07-31T02:09:20;17.60;99.90
17066;DHT22;23120;52.336;21.182;2023-07-31T02:11:47;17.60;99.90
17066;DHT22;23120;52.336;21.182;2023-07-31T02:14:14;17.60;99.90
17066;DHT22;23120;52.336;21.182;2023-07-31T02:16:42;17.60;99.90
17066;DHT22;23120;52.336;21.182;2023-07-31T02:19:09;17.60;99.90
17066;DHT22;23120;52.336;21.182;2023-07-31T02:21:36;17.50;99.90
17066;DHT22;23120;52.336;21.182;2023-07-31T02:24:03;17.60;99.90
17066;DHT22;23120;52.336;21.182;2023-07-31T02:26:30;17.50;99.90
17066;DHT22;23120;52.336;21.182;2023-07-31T02:28:57;17.50;99.90
17066;DHT22;23120;52.336;21.182;2023-07-31T02:31:24;17.50;99.90
17066;DHT22;23120;52.336;21.182;2023-07-31T02:33:52;17.50;99.90
17066;DHT22;23120;52.336;21.182;2023-07-31T02:36:19;17.50;99.90
17066;DHT22;23120;52.336;21.182;2023-07-31T02:38:46;17.50;99.90
17066;DHT22;23120;52.336;21.182;2023-07-31T02:41:13;17.50;99.90
17066;DHT22;23120;52.336;21.182;2023-07-31T02:43:39;17.40;99.90
17066;DHT22;23120;52.336;21.182;2023-07-31T02:46:06;17.40;99.90
17066;DHT22;23120;52.336;21.182;2023-07-31T02:48:33;17.40;99.90
17066;DHT22;23120;52.336;21.182;2023-07-31T02:51:01;17.30;99.90
17066;DHT22;23120;52.336;21.182;2023-07-31T02:53:28;17.30;99.90
17066;DHT22;23120;52.336;21.182;2023-07-31T02:55:55;17.30;99.90
17066;DHT22;23120;52.336;21.182;2023-07-31T02:58:22;17.30;99.90
17066;DHT22;23120;52.336;21.182;2023-07-31T03:00:48;17.20;99.90
17066;DHT22;23120;52.336;21.182;2023-07-31T03:03:15;17.30;99.90
17066;DHT22;23120;52.336;21.182;2023-07-31T03:05:42;17.30;99.90
17066;DHT22;23120;52.336;21.182;2023-07-31T03:08:10;17.20;99.90
17066;DHT22;23120;52.336;21.182;2023-07-31T03:10:37;17.20;99.90
17066;DHT22;23120;52.336;21.182;2023-07-31T03:13:04;17.20;99.90
17066;DHT22;23120;52.336;21.182;2023-07-31T03:15:31;17.20;99.90
17066;DHT22;23120;52.336;21.182;2023-07-31T03:17:58;17.30;99.90
17066;DHT22;23120;52.336;21.182;2023-07-31T03:20:25;17.20;99.90
17066;DHT22;23120;52.336;21.182;2023-07-31T03:22:52;17.20;99.90
17066;DHT22;23120;52.336;21.182;2023-07-31T03:25:20;17.20;99.90
17066;DHT22;23120;52.336;21.182;2023-07-31T03:27:47;17.20;99.90
17066;DHT22;23120;52.336;21.182;2023-07-31T03:30:13;17.20;99.90
17066;DHT22;23120;52.336;21.182;2023-07-31T03:32:40;17.30;99.90
17066;DHT22;23120;52.336;21.182;2023-07-31T03:35:07;17.30;99.90
17066;DHT22;23120;52.336;21.182;2023-07-31T03:37:34;17.30;99.90
17066;DHT22;23120;52.336;21.182;2023-07-31T03:40:01;17.30;99.90
17066;DHT22;23120;52.336;21.182;2023-07-31T03:42:31;17.30;99.90
17066;DHT22;23120;52.336;21.182;2023-07-31T03:44:58;17.30;99.90
17066;DHT22;23120;52.336;21.182;2023-07-31T03:47:26;17.30;99.90
17066;DHT22;23120;52.336;21.182;2023-07-31T03:49:53;17.30;99.90
17066;DHT22;23120;52.336;21.182;2023-07-31T03:52:21;17.30;99.90
17066;DHT22;23120;52.336;21.182;2023-07-31T03:54:48;17.40;99.90
17066;DHT22;23120;52.336;21.182;2023-07-31T03:57:14;17.30;99.90
17066;DHT22;23120;52.336;21.182;2023-07-31T03:59:43;17.40;99.90
17066;DHT22;23120;52.336;21.182;2023-07-31T04:02:10;17.40;99.90
17066;DHT22;23120;52.336;21.182;2023-07-31T04:04:36;17.40;99.90
17066;DHT22;23120;52.336;21.182;2023-07-31T04:07:03;17.30;99.90
17066;DHT22;23120;52.336;21.182;2023-07-31T04:09:30;17.40;99.90
17066;DHT22;23120;52.336;21.182;2023-07-31T04:11:57;17.40;99.90
17066;DHT22;23120;52.336;21.182;2023-07-31T04:14:23;17.40;99.90
17066;DHT22;23120;52.336;21.182;2023-07-31T04:16:52;17.40;99.90
17066;DHT22;23120;52.336;21.182;2023-07-31T04:19:18;17.40;99.90
17066;DHT22;23120;52.336;21.182;2023-07-31T04:21:45;17.40;99.90
17066;DHT22;23120;52.336;21.182;2023-07-31T04:24:12;17.40;99.90
17066;DHT22;23120;52.336;21.182;2023-07-31T04:26:39;17.40;99.90
17066;DHT22;23120;52.336;21.182;2023-07-31T04:29:06;17.40;99.90
17066;DHT22;23120;52.336;21.182;2023-07-31T04:31:34;17.50;99.90
17066;DHT22;23120;52.336;21.182;2023-07-31T04:34:03;17.50;99.90
17066;DHT22;23120;52.336;21.182;2023-07-31T04:36:30;17.50;99.90
17066;DHT22;23120;52.336;21.182;2023-07-31T04:38:57;17.50;99.90
17066;DHT22;23120;52.336;21.182;2023-07-31T04:41:23;17.50;99.90
17066;DHT22;23120;52.336;21.182;2023-07-31T04:43:50;17.50;99.90
17066;DHT22;23120;52.336;21.182;2023-07-31T04:46:17;17.60;99.90
17066;DHT22;23120;52.336;21.182;2023-07-31T04:48:44;17.50;99.90
17066;DHT22;23120;52.336;21.182;2023-07-31T04:51:12;17.50;99.90
17066;DHT22;23120;52.336;21.182;2023-07-31T04:53:39;17.60;99.90
17066;DHT22;23120;52.336;21.182;2023-07-31T04:56:06;17.60;99.90
17066;DHT22;23120;52.336;21.182;2023-07-31T04:58:32;17.60;99.90
17066;DHT22;23120;52.336;21.182;2023-07-31T05:00:59;17.70;99.90
17066;DHT22;23120;52.336;21.182;2023-07-31T05:03:26;17.60;99.90
17066;DHT22;23120;52.336;21.182;2023-07-31T05:05:53;17.70;99.90
17066;DHT22;23120;52.336;21.182;2023-07-31T05:08:21;17.70;99.90
17066;DHT22;23120;52.336;21.182;2023-07-31T05:10:48;17.70;99.90
17066;DHT22;23120;52.336;21.182;2023-07-31T05:13:15;17.80;99.90
17066;DHT22;23120;52.336;21.182;2023-07-31T05:15:41;17.80;99.90
17066;DHT22;23120;52.336;21.182;2023-07-31T05:18:08;17.80;99.90
17066;DHT22;23120;52.336;21.182;2023-07-31T05:20:35;17.80;99.90
17066;DHT22;23120;52.336;21.182;2023-07-31T05:23:02;17.80;99.90
17066;DHT22;23120;52.336;21.182;2023-07-31T05:25:30;17.90;99.90
17066;DHT22;23120;52.336;21.182;2023-07-31T05:27:57;17.90;99.90
17066;DHT22;23120;52.336;21.182;2023-07-31T05:30:24;17.90;99.90
17066;DHT22;23120;52.336;21.182;2023-07-31T05:32:51;18.00;99.90
17066;DHT22;23120;52.336;21.182;2023-07-31T05:35:18;18.00;99.90
17066;DHT22;23120;52.336;21.182;2023-07-31T05:37:45;18.10;99.90
17066;DHT22;23120;52.336;21.182;2023-07-31T05:40:12;18.10;99.90
17066;DHT22;23120;52.336;21.182;2023-07-31T05:42:40;18.10;99.90
17066;DHT22;23120;52.336;21.182;2023-07-31T05:45:07;18.10;99.90
17066;DHT22;23120;52.336;21.182;2023-07-31T05:47:34;18.20;99.90
17066;DHT22;23120;52.336;21.182;2023-07-31T05:50:01;18.20;99.90
17066;DHT22;23120;52.336;21.182;2023-07-31T05:52:28;18.20;99.90
17066;DHT22;23120;52.336;21.182;2023-07-31T05:54:55;18.30;99.90
17066;DHT22;23120;52.336;21.182;2023-07-31T05:57:22;18.30;99.90
17066;DHT22;23120;52.336;21.182;2023-07-31T05:59:50;18.40;99.90
17066;DHT22;23120;52.336;21.182;2023-07-31T06:02:19;18.40;99.90
17066;DHT22;23120;52.336;21.182;2023-07-31T06:04:45;18.50;99.90
17066;DHT22;23120;52.336;21.182;2023-07-31T06:07:12;18.50;99.90
17066;DHT22;23120;52.336;21.182;2023-07-31T06:09:39;18.50;99.90
17066;DHT22;23120;52.336;21.182;2023-07-31T06:12:06;18.60;99.90
17066;DHT22;23120;52.336;21.182;2023-07-31T06:14:34;18.60;99.90
17066;DHT22;23120;52.336;21.182;2023-07-31T06:17:03;18.70;99.90
17066;DHT22;23120;52.336;21.182;2023-07-31T06:19:29;18.70;99.90
17066;DHT22;23120;52.336;21.182;2023-07-31T06:21:56;18.80;99.90
17066;DHT22;23120;52.336;21.182;2023-07-31T06:24:23;18.80;99.90
17066;DHT22;23120;52.336;21.182;2023-07-31T06:26:50;18.90;99.90
17066;DHT22;23120;52.336;21.182;2023-07-31T06:29:17;19.00;99.90
17066;DHT22;23120;52.336;21.182;2023-07-31T06:31:44;19.00;99.90
17066;DHT22;23120;52.336;21.182;2023-07-31T06:34:12;19.00;99.90
17066;DHT22;23120;52.336;21.182;2023-07-31T06:36:39;19.10;99.90
17066;DHT22;23120;52.336;21.182;2023-07-31T06:39:05;19.10;99.90
17066;DHT22;23120;52.336;21.182;2023-07-31T06:41:32;19.10;99.90
17066;DHT22;23120;52.336;21.182;2023-07-31T06:44:04;19.10;99.90
17066;DHT22;23120;52.336;21.182;2023-07-31T06:46:31;19.10;99.90
17066;DHT22;23120;52.336;21.182;2023-07-31T06:48:58;19.10;99.90
17066;DHT22;23120;52.336;21.182;2023-07-31T06:51:26;19.10;99.90
17066;DHT22;23120;52.336;21.182;2023-07-31T06:53:53;19.10;99.90
17066;DHT22;23120;52.336;21.182;2023-07-31T06:56:21;19.10;99.90
17066;DHT22;23120;52.336;21.182;2023-07-31T06:58:47;19.10;99.90
17066;DHT22;23120;52.336;21.182;2023-07-31T07:01:14;19.00;99.90
17066;DHT22;23120;52.336;21.182;2023-07-31T07:03:41;19.00;99.90
17066;DHT22;23120;52.336;21.182;2023-07-31T07:06:08;19.00;99.90
17066;DHT22;23120;52.336;21.182;2023-07-31T07:08:38;19.00;99.90
17066;DHT22;23120;52.336;21.182;2023-07-31T07:11:05;19.00;99.90
17066;DHT22;23120;52.336;21.182;2023-07-31T07:13:32;18.90;99.90
17066;DHT22;23120;52.336;21.182;2023-07-31T07:15:59;18.90;99.90
17066;DHT22;23120;52.336;21.182;2023-07-31T07:18:25;19.00;99.90
17066;DHT22;23120;52.336;21.182;2023-07-31T07:20:54;18.80;99.90
17066;DHT22;23120;52.336;21.182;2023-07-31T07:23:22;18.90;99.90
17066;DHT22;23120;52.336;21.182;2023-07-31T07:25:50;18.90;99.90
17066;DHT22;23120;52.336;21.182;2023-07-31T07:28:17;18.90;99.90
17066;DHT22;23120;52.336;21.182;2023-07-31T07:30:44;18.90;99.90
17066;DHT22;23120;52.336;21.182;2023-07-31T07:33:11;18.90;99.90
17066;DHT22;23120;52.336;21.182;2023-07-31T07:35:38;19.00;99.90
17066;DHT22;23120;52.336;21.182;2023-07-31T07:38:04;19.00;99.90
17066;DHT22;23120;52.336;21.182;2023-07-31T07:40:31;19.10;99.90
17066;DHT22;23120;52.336;21.182;2023-07-31T07:43:03;19.20;99.90
17066;DHT22;23120;52.336;21.182;2023-07-31T07:49:05;19.40;99.90
17066;DHT22;23120;52.336;21.182;2023-07-31T07:51:32;19.60;99.90
17066;DHT22;23120;52.336;21.182;2023-07-31T07:53:59;19.70;99.90
17066;DHT22;23120;52.336;21.182;2023-07-31T07:56:27;19.80;99.90
17066;DHT22;23120;52.336;21.182;2023-07-31T07:58:55;19.90;99.90
17066;DHT22;23120;52.336;21.182;2023-07-31T08:01:22;20.00;99.90
17066;DHT22;23120;52.336;21.182;2023-07-31T08:03:50;20.20;99.90
17066;DHT22;23120;52.336;21.182;2023-07-31T08:06:17;20.40;99.90
17066;DHT22;23120;52.336;21.182;2023-07-31T08:08:43;20.50;99.90
17066;DHT22;23120;52.336;21.182;2023-07-31T08:11:10;20.70;99.90
17066;DHT22;23120;52.336;21.182;2023-07-31T08:13:37;20.80;99.90
17066;DHT22;23120;52.336;21.182;2023-07-31T08:16:05;21.00;99.90
17066;DHT22;23120;52.336;21.182;2023-07-31T08:18:32;21.10;99.90
17066;DHT22;23120;52.336;21.182;2023-07-31T08:20:59;21.10;99.40
17066;DHT22;23120;52.336;21.182;2023-07-31T08:23:26;21.20;99.50
17066;DHT22;23120;52.336;21.182;2023-07-31T08:25:53;21.30;99.10
17066;DHT22;23120;52.336;21.182;2023-07-31T08:28:20;21.50;98.80
17066;DHT22;23120;52.336;21.182;2023-07-31T08:30:47;21.50;97.90
17066;DHT22;23120;52.336;21.182;2023-07-31T08:33:15;21.60;98.60
17066;DHT22;23120;52.336;21.182;2023-07-31T08:35:42;21.70;98.00
17066;DHT22;23120;52.336;21.182;2023-07-31T08:38:09;21.90;97.50
17066;DHT22;23120;52.336;21.182;2023-07-31T08:40:36;22.00;98.10
17066;DHT22;23120;52.336;21.182;2023-07-31T08:46:40;22.40;96.20
17066;DHT22;23120;52.336;21.182;2023-07-31T08:49:10;22.50;97.20
17066;DHT22;23120;52.336;21.182;2023-07-31T08:51:50;22.60;95.80
17066;DHT22;23120;52.336;21.182;2023-07-31T08:54:17;22.80;94.50
17066;DHT22;23120;52.336;21.182;2023-07-31T08:56:44;22.60;93.70
17066;DHT22;23120;52.336;21.182;2023-07-31T08:59:11;22.70;93.20
17066;DHT22;23120;52.336;21.182;2023-07-31T09:01:43;22.60;93.20
17066;DHT22;23120;52.336;21.182;2023-07-31T09:04:21;22.60;93.00
17066;DHT22;23120;52.336;21.182;2023-07-31T09:06:49;22.70;92.80
17066;DHT22;23120;52.336;21.182;2023-07-31T09:09:17;22.80;92.50
17066;DHT22;23120;52.336;21.182;2023-07-31T09:11:46;22.90;92.50
17066;DHT22;23120;52.336;21.182;2023-07-31T09:14:14;23.00;92.10
17066;DHT22;23120;52.336;21.182;2023-07-31T09:16:52;23.00;91.70
17066;DHT22;23120;52.336;21.182;2023-07-31T09:19:26;23.20;91.80
17066;DHT22;23120;52.336;21.182;2023-07-31T09:21:53;23.10;91.60
17066;DHT22;23120;52.336;21.182;2023-07-31T09:24:27;23.20;91.80
17066;DHT22;23120;52.336;21.182;2023-07-31T09:26:56;23.30;91.30
17066;DHT22;23120;52.336;21.182;2023-07-31T09:29:24;23.20;91.00
17066;DHT22;23120;52.336;21.182;2023-07-31T09:31:52;23.20;90.90
17066;DHT22;23120;52.336;21.182;2023-07-31T09:34:20;23.30;91.00
17066;DHT22;23120;52.336;21.182;2023-07-31T09:36:50;23.40;90.50
17066;DHT22;23120;52.336;21.182;2023-07-31T09:39:19;23.40;89.90
17066;DHT22;23120;52.336;21.182;2023-07-31T09:41:53;23.30;88.90
17066;DHT22;23120;52.336;21.182;2023-07-31T09:44:20;23.40;90.20
17066;DHT22;23120;52.336;21.182;2023-07-31T09:46:48;23.60;90.20
17066;DHT22;23120;52.336;21.182;2023-07-31T09:49:15;23.60;87.50
17066;DHT22;23120;52.336;21.182;2023-07-31T09:51:42;23.90;89.00
17066;DHT22;23120;52.336;21.182;2023-07-31T09:54:11;23.90;87.40
17066;DHT22;23120;52.336;21.182;2023-07-31T09:56:42;23.90;87.70
17066;DHT22;23120;52.336;21.182;2023-07-31T10:02:32;23.80;83.30
17066;DHT22;23120;52.336;21.182;2023-07-31T10:05:13;23.50;84.30
17066;DHT22;23120;52.336;21.182;2023-07-31T10:07:42;23.40;85.30
17066;DHT22;23120;52.336;21.182;2023-07-31T10:10:11;23.20;85.70
17066;DHT22;23120;52.336;21.182;2023-07-31T10:12:39;23.40;86.60
17066;DHT22;23120;52.336;21.182;2023-07-31T10:15:06;23.60;85.40
17066;DHT22;23120;52.336;21.182;2023-07-31T10:17:35;23.60;85.70
17066;DHT22;23120;52.336;21.182;2023-07-31T10:20:03;24.10;85.80
17066;DHT22;23120;52.336;21.182;2023-07-31T10:22:34;24.10;81.70
17066;DHT22;23120;52.336;21.182;2023-07-31T10:25:01;24.30;81.30
17066;DHT22;23120;52.336;21.182;2023-07-31T10:27:30;24.40;78.20
17066;DHT22;23120;52.336;21.182;2023-07-31T10:29:58;24.60;78.10
17066;DHT22;23120;52.336;21.182;2023-07-31T10:32:26;24.70;76.40
17066;DHT22;23120;52.336;21.182;2023-07-31T10:34:54;24.50;75.20
17066;DHT22;23120;52.336;21.182;2023-07-31T10:37:23;24.70;74.80
17066;DHT22;23120;52.336;21.182;2023-07-31T10:39:58;24.70;76.40
17066;DHT22;23120;52.336;21.182;2023-07-31T10:42:32;24.80;76.50
17066;DHT22;23120;52.336;21.182;2023-07-31T10:45:01;24.80;74.50
17066;DHT22;23120;52.336;21.182;2023-07-31T10:47:29;25.00;74.40
17066;DHT22;23120;52.336;21.182;2023-07-31T10:57:36;25.10;73.00
17066;DHT22;23120;52.336;21.182;2023-07-31T11:00:18;25.20;73.30
17066;DHT22;23120;52.336;21.182;2023-07-31T11:02:59;25.20;73.30
17066;DHT22;23120;52.336;21.182;2023-07-31T11:10:49;24.80;70.10
17066;DHT22;23120;52.336;21.182;2023-07-31T11:17:49;25.20;70.40
17066;DHT22;23120;52.336;21.182;2023-07-31T11:31:56;25.10;71.30
17066;DHT22;23120;52.336;21.182;2023-07-31T11:34:27;25.10;71.00
17066;DHT22;23120;52.336;21.182;2023-07-31T11:36:54;25.30;71.20
17066;DHT22;23120;52.336;21.182;2023-07-31T11:43:34;25.50;69.20
17066;DHT22;23120;52.336;21.182;2023-07-31T11:46:05;25.40;69.50
17066;DHT22;23120;52.336;21.182;2023-07-31T11:48:33;25.40;68.00
17066;DHT22;23120;52.336;21.182;2023-07-31T11:59:08;25.50;69.70
17066;DHT22;23120;52.336;21.182;2023-07-31T12:05:26;25.40;66.60
17066;DHT22;23120;52.336;21.182;2023-07-31T12:07:54;25.30;66.60
17066;DHT22;23120;52.336;21.182;2023-07-31T12:10:26;25.50;67.90
17066;DHT22;23120;52.336;21.182;2023-07-31T12:13:20;25.70;66.90
17066;DHT22;23120;52.336;21.182;2023-07-31T12:15:53;25.70;66.40
17066;DHT22;23120;52.336;21.182;2023-07-31T12:18:20;25.50;64.70
17066;DHT22;23120;52.336;21.182;2023-07-31T12:20:48;25.30;64.00
17066;DHT22;23120;52.336;21.182;2023-07-31T12:23:16;25.20;64.20
17066;DHT22;23120;52.336;21.182;2023-07-31T12:26:05;25.50;65.60
17066;DHT22;23120;52.336;21.182;2023-07-31T12:28:41;25.40;66.00
17066;DHT22;23120;52.336;21.182;2023-07-31T12:31:11;25.20;64.90
17066;DHT22;23120;52.336;21.182;2023-07-31T12:33:39;25.10;66.40
17066;DHT22;23120;52.336;21.182;2023-07-31T12:36:09;24.90;63.50
17066;DHT22;23120;52.336;21.182;2023-07-31T12:38:36;25.00;65.60
17066;DHT22;23120;52.336;21.182;2023-07-31T12:41:03;25.00;66.30
17066;DHT22;23120;52.336;21.182;2023-07-31T12:43:30;24.90;66.20
17066;DHT22;23120;52.336;21.182;2023-07-31T12:45:57;24.90;66.20
17066;DHT22;23120;52.336;21.182;2023-07-31T12:48:25;24.70;66.00
17066;DHT22;23120;52.336;21.182;2023-07-31T12:50:52;24.50;65.40
17066;DHT22;23120;52.336;21.182;2023-07-31T12:53:19;24.40;65.20
17066;DHT22;23120;52.336;21.182;2023-07-31T12:55:46;24.40;65.70
17066;DHT22;23120;52.336;21.182;2023-07-31T12:58:13;24.50;65.80
17066;DHT22;23120;52.336;21.182;2023-07-31T13:00:40;24.60;67.50
17066;DHT22;23120;52.336;21.182;2023-07-31T13:03:06;24.50;67.10
17066;DHT22;23120;52.336;21.182;2023-07-31T13:05:35;24.50;68.10
17066;DHT22;23120;52.336;21.182;2023-07-31T13:08:02;24.60;68.60
17066;DHT22;23120;52.336;21.182;2023-07-31T13:10:29;24.60;67.70
17066;DHT22;23120;52.336;21.182;2023-07-31T13:12:55;24.60;68.30
17066;DHT22;23120;52.336;21.182;2023-07-31T13:15:23;24.80;68.00
17066;DHT22;23120;52.336;21.182;2023-07-31T13:17:50;24.70;67.30
17066;DHT22;23120;52.336;21.182;2023-07-31T13:20:17;24.80;67.50
17066;DHT22;23120;52.336;21.182;2023-07-31T13:22:45;25.10;68.40
17066;DHT22;23120;52.336;21.182;2023-07-31T13:25:12;25.20;67.30
17066;DHT22;23120;52.336;21.182;2023-07-31T13:27:38;25.30;66.90
17066;DHT22;23120;52.336;21.182;2023-07-31T13:30:07;25.40;68.70
17066;DHT22;23120;52.336;21.182;2023-07-31T13:32:34;25.50;66.70
17066;DHT22;23120;52.336;21.182;2023-07-31T13:35:05;25.60;67.20
17066;DHT22;23120;52.336;21.182;2023-07-31T13:37:31;25.70;66.00
17066;DHT22;23120;52.336;21.182;2023-07-31T13:39:59;25.90;66.00
17066;DHT22;23120;52.336;21.182;2023-07-31T13:42:26;26.10;65.60
17066;DHT22;23120;52.336;21.182;2023-07-31T13:44:54;26.30;65.00
17066;DHT22;23120;52.336;21.182;2023-07-31T13:47:21;26.30;63.90
17066;DHT22;23120;52.336;21.182;2023-07-31T13:49:48;26.40;64.40
17066;DHT22;23120;52.336;21.182;2023-07-31T13:52:15;26.20;62.60
17066;DHT22;23120;52.336;21.182;2023-07-31T13:54:42;25.90;63.10
17066;DHT22;23120;52.336;21.182;2023-07-31T13:57:10;26.10;61.50
17066;DHT22;23120;52.336;21.182;2023-07-31T13:59:37;25.90;61.10
17066;DHT22;23120;52.336;21.182;2023-07-31T14:02:05;26.00;61.40
17066;DHT22;23120;52.336;21.182;2023-07-31T14:04:32;26.20;61.40
17066;DHT22;23120;52.336;21.182;2023-07-31T14:06:59;26.30;61.40
17066;DHT22;23120;52.336;21.182;2023-07-31T14:09:26;26.50;60.00
17066;DHT22;23120;52.336;21.182;2023-07-31T14:11:54;26.50;58.80
17066;DHT22;23120;52.336;21.182;2023-07-31T14:14:22;26.80;60.70
17066;DHT22;23120;52.336;21.182;2023-07-31T14:16:49;26.80;59.90
17066;DHT22;23120;52.336;21.182;2023-07-31T14:19:16;26.80;58.60
17066;DHT22;23120;52.336;21.182;2023-07-31T14:21:42;26.40;57.90
17066;DHT22;23120;52.336;21.182;2023-07-31T14:24:09;26.50;58.60
17066;DHT22;23120;52.336;21.182;2023-07-31T14:26:36;26.10;57.80
17066;DHT22;23120;52.336;21.182;2023-07-31T14:29:03;26.20;58.00
17066;DHT22;23120;52.336;21.182;2023-07-31T14:31:31;25.70;57.10
17066;DHT22;23120;52.336;21.182;2023-07-31T14:33:58;25.50;58.40
17066;DHT22;23120;52.336;21.182;2023-07-31T14:36:24;25.50;59.10
17066;DHT22;23120;52.336;21.182;2023-07-31T14:38:51;25.30;58.70
17066;DHT22;23120;52.336;21.182;2023-07-31T14:41:18;25.30;58.50
17066;DHT22;23120;52.336;21.182;2023-07-31T14:43:45;25.20;59.00
17066;DHT22;23120;52.336;21.182;2023-07-31T14:46:11;25.10;59.30
17066;DHT22;23120;52.336;21.182;2023-07-31T14:48:40;25.20;60.70
17066;DHT22;23120;52.336;21.182;2023-07-31T14:51:06;25.00;59.80
17066;DHT22;23120;52.336;21.182;2023-07-31T14:53:33;25.10;60.50
17066;DHT22;23120;52.336;21.182;2023-07-31T14:56:00;25.10;61.00
17066;DHT22;23120;52.336;21.182;2023-07-31T14:58:27;25.10;61.50
17066;DHT22;23120;52.336;21.182;2023-07-31T15:00:53;25.20;61.70
17066;DHT22;23120;52.336;21.182;2023-07-31T15:03:20;25.30;61.50
17066;DHT22;23120;52.336;21.182;2023-07-31T15:05:48;25.30;62.80
17066;DHT22;23120;52.336;21.182;2023-07-31T15:08:15;25.20;60.60
17066;DHT22;23120;52.336;21.182;2023-07-31T15:10:42;25.20;61.70
17066;DHT22;23120;52.336;21.182;2023-07-31T15:13:09;25.20;61.70
17066;DHT22;23120;52.336;21.182;2023-07-31T15:15:38;25.20;61.80
17066;DHT22;23120;52.336;21.182;2023-07-31T15:18:05;25.20;61.60
17066;DHT22;23120;52.336;21.182;2023-07-31T15:20:32;25.20;61.80
17066;DHT22;23120;52.336;21.182;2023-07-31T15:23:01;25.40;63.40
17066;DHT22;23120;52.336;21.182;2023-07-31T15:25:29;25.20;62.90
17066;DHT22;23120;52.336;21.182;2023-07-31T15:27:56;25.20;62.70
17066;DHT22;23120;52.336;21.182;2023-07-31T15:30:24;24.90;60.40
17066;DHT22;23120;52.336;21.182;2023-07-31T15:32:52;24.70;61.70
17066;DHT22;23120;52.336;21.182;2023-07-31T15:35:19;24.60;62.00
17066;DHT22;23120;52.336;21.182;2023-07-31T15:37:46;24.70;62.80
17066;DHT22;23120;52.336;21.182;2023-07-31T15:40:14;24.50;62.80
17066;DHT22;23120;52.336;21.182;2023-07-31T15:42:41;24.40;63.50
17066;DHT22;23120;52.336;21.182;2023-07-31T15:45:09;24.30;63.60
17066;DHT22;23120;52.336;21.182;2023-07-31T15:47:36;24.30;64.50
17066;DHT22;23120;52.336;21.182;2023-07-31T15:50:03;24.30;64.80
17066;DHT22;23120;52.336;21.182;2023-07-31T15:52:30;24.20;64.70
17066;DHT22;23120;52.336;21.182;2023-07-31T15:54:58;24.20;65.50
17066;DHT22;23120;52.336;21.182;2023-07-31T15:57:26;24.20;66.20
17066;DHT22;23120;52.336;21.182;2023-07-31T15:59:53;24.10;65.40
17066;DHT22;23120;52.336;21.182;2023-07-31T16:02:20;24.10;65.40
17066;DHT22;23120;52.336;21.182;2023-07-31T16:04:47;24.20;66.30
17066;DHT22;23120;52.336;21.182;2023-07-31T16:07:14;24.30;66.90
17066;DHT22;23120;52.336;21.182;2023-07-31T16:09:41;24.10;65.60
17066;DHT22;23120;52.336;21.182;2023-07-31T16:12:08;24.10;66.30
17066;DHT22;23120;52.336;21.182;2023-07-31T16:14:37;24.20;67.10